createdAt,value
2018-08-22T00:00:40.205Z,22.10
2018-08-22T00:03:08.545Z,22.10
2018-08-22T00:05:36.821Z,22.10
2018-08-22T00:08:05.513Z,22.10
2018-08-22T00:10:33.795Z,22.20
2018-08-22T00:13:02.130Z,22.20
2018-08-22T00:15:30.477Z,22.20
2018-08-22T00:17:58.834Z,22.20
2018-08-22T00:20:27.118Z,22.10
2018-08-22T00:22:55.412Z,21.90
2018-08-22T00:25:23.750Z,21.80
2018-08-22T00:27:52.122Z,21.80
2018-08-22T00:30:20.917Z,21.90
2018-08-22T00:32:49.210Z,22.00
2018-08-22T00:35:17.522Z,22.00
2018-08-22T00:37:45.792Z,21.90
2018-08-22T00:40:14.201Z,21.90
2018-08-22T00:42:42.459Z,21.90
2018-08-22T00:45:10.786Z,21.90
2018-08-22T00:47:39.048Z,22.00
2018-08-22T00:50:07.342Z,22.00
2018-08-22T00:52:35.593Z,22.00
2018-08-22T00:55:03.954Z,22.00
2018-08-22T00:57:32.255Z,21.90
2018-08-22T01:00:00.616Z,22.00
2018-08-22T01:02:28.902Z,21.90
2018-08-22T01:04:57.186Z,21.80
2018-08-22T01:07:25.495Z,21.80
2018-08-22T01:09:53.802Z,21.80
2018-08-22T01:12:22.073Z,21.80
2018-08-22T01:14:50.625Z,21.70
2018-08-22T01:17:18.909Z,21.70
2018-08-22T01:19:47.212Z,21.70
2018-08-22T01:22:15.625Z,21.80
2018-08-22T01:24:43.935Z,21.80
2018-08-22T01:27:17.563Z,21.70
2018-08-22T01:29:45.853Z,21.70
2018-08-22T01:32:14.128Z,21.70
2018-08-22T01:34:42.817Z,21.70
2018-08-22T01:37:11.129Z,21.60
2018-08-22T01:39:39.419Z,21.70
2018-08-22T01:42:07.751Z,21.70
2018-08-22T01:44:36.037Z,21.80
2018-08-22T01:47:04.321Z,21.70
2018-08-22T01:49:32.668Z,21.60
2018-08-22T01:52:01.178Z,21.50
2018-08-22T01:54:29.561Z,21.50
2018-08-22T01:56:58.162Z,21.40
2018-08-22T01:59:26.468Z,21.30
2018-08-22T02:01:54.749Z,21.20
2018-08-22T02:04:23.082Z,21.20
2018-08-22T02:06:51.425Z,21.30
2018-08-22T02:09:19.701Z,21.30
2018-08-22T02:11:48.014Z,21.20
2018-08-22T02:14:16.344Z,21.20
2018-08-22T02:16:44.652Z,21.20
2018-08-22T02:19:12.934Z,21.10
2018-08-22T02:21:41.204Z,21.10
2018-08-22T02:24:09.497Z,21.10
2018-08-22T02:26:37.808Z,21.00
2018-08-22T02:29:06.205Z,21.00
2018-08-22T02:31:34.619Z,20.90
2018-08-22T02:34:02.918Z,20.80
2018-08-22T02:36:31.214Z,20.80
2018-08-22T02:38:59.541Z,20.80
2018-08-22T02:41:27.869Z,20.90
2018-08-22T02:43:56.209Z,20.90
2018-08-22T02:46:24.505Z,20.90
2018-08-22T02:48:53.688Z,20.80
2018-08-22T02:51:22.156Z,20.70
2018-08-22T02:53:50.522Z,20.70
2018-08-22T02:56:18.862Z,20.60
2018-08-22T02:58:47.230Z,20.70
2018-08-22T03:01:15.735Z,20.80
2018-08-22T03:03:44.110Z,20.80
2018-08-22T03:06:12.420Z,20.80
2018-08-22T03:08:41.481Z,20.80
2018-08-22T03:11:10.002Z,20.80
2018-08-22T03:13:38.317Z,20.80
2018-08-22T03:16:06.689Z,20.60
2018-08-22T03:18:34.997Z,20.40
2018-08-22T03:21:03.301Z,20.30
2018-08-22T03:23:31.649Z,20.40
2018-08-22T03:26:00.048Z,20.30
2018-08-22T03:28:28.281Z,20.30
2018-08-22T03:30:56.571Z,20.30
2018-08-22T03:33:24.913Z,20.30
2018-08-22T03:35:53.244Z,20.30
2018-08-22T03:38:21.591Z,20.30
2018-08-22T03:40:49.946Z,20.30
2018-08-22T03:43:18.248Z,20.30
2018-08-22T03:45:46.562Z,20.30
2018-08-22T03:48:14.830Z,20.30
2018-08-22T03:50:43.161Z,20.20
2018-08-22T03:53:11.429Z,20.00
2018-08-22T03:55:39.778Z,20.00
2018-08-22T03:58:08.118Z,19.90
2018-08-22T04:00:36.467Z,20.00
2018-08-22T04:03:04.787Z,20.00
2018-08-22T04:05:33.131Z,20.10
2018-08-22T04:08:01.454Z,20.10
2018-08-22T04:10:29.782Z,20.10
2018-08-22T04:12:58.097Z,20.00
2018-08-22T04:15:26.619Z,20.00
2018-08-22T04:17:54.939Z,20.00
2018-08-22T04:20:23.194Z,20.00
2018-08-22T04:22:51.529Z,19.90
2018-08-22T04:25:19.828Z,19.90
2018-08-22T04:27:48.124Z,19.90
2018-08-22T04:30:16.429Z,19.80
2018-08-22T04:32:44.700Z,19.90
2018-08-22T04:35:13.025Z,19.90
2018-08-22T04:37:41.333Z,19.90
2018-08-22T04:40:09.645Z,19.90
2018-08-22T04:42:38.036Z,20.00
2018-08-22T04:45:06.320Z,20.00
2018-08-22T04:47:34.626Z,20.00
2018-08-22T04:50:03.006Z,20.00
2018-08-22T04:52:31.329Z,20.00
2018-08-22T04:54:59.632Z,20.00
2018-08-22T04:57:27.933Z,20.00
2018-08-22T04:59:56.942Z,20.00
2018-08-22T05:02:25.314Z,20.00
2018-08-22T05:04:53.671Z,20.00
2018-08-22T05:07:21.952Z,19.90
2018-08-22T05:09:50.275Z,20.00
2018-08-22T05:12:18.573Z,20.00
2018-08-22T05:14:46.922Z,19.90
2018-08-22T05:17:15.204Z,19.90
2018-08-22T05:19:43.537Z,19.90
2018-08-22T05:22:11.850Z,19.80
2018-08-22T05:24:40.628Z,19.80
2018-08-22T05:27:08.955Z,19.80
2018-08-22T05:29:37.337Z,19.90
2018-08-22T05:32:05.702Z,20.00
2018-08-22T05:34:33.981Z,20.00
2018-08-22T05:37:02.308Z,20.00
2018-08-22T05:39:30.616Z,20.00
2018-08-22T05:41:58.954Z,20.10
2018-08-22T05:44:27.267Z,20.10
2018-08-22T05:46:55.725Z,20.10
2018-08-22T05:49:24.045Z,20.10
2018-08-22T05:51:52.370Z,20.20
2018-08-22T05:54:20.674Z,20.30
2018-08-22T05:56:48.996Z,20.40
2018-08-22T05:59:17.298Z,20.50
2018-08-22T06:01:45.642Z,20.50
2018-08-22T06:04:13.990Z,20.50
2018-08-22T06:06:42.636Z,20.60
2018-08-22T06:09:12.088Z,20.70
2018-08-22T06:11:41.524Z,20.80
2018-08-22T06:14:09.809Z,20.90
2018-08-22T06:16:38.143Z,21.00
2018-08-22T06:19:06.575Z,21.00
2018-08-22T06:21:35.838Z,21.10
2018-08-22T06:24:04.183Z,21.10
2018-08-22T06:26:32.527Z,21.20
2018-08-22T06:29:00.984Z,21.30
2018-08-22T06:31:29.370Z,21.40
2018-08-22T06:33:57.669Z,21.40
2018-08-22T06:36:26.045Z,21.50
2018-08-22T06:38:54.319Z,21.60
2018-08-22T06:41:22.719Z,21.60
2018-08-22T06:43:51.032Z,21.60
2018-08-22T06:46:19.410Z,21.70
2018-08-22T06:48:47.746Z,21.80
2018-08-22T06:51:16.014Z,21.80
2018-08-22T06:53:44.309Z,21.80
2018-08-22T06:56:12.606Z,21.90
2018-08-22T06:58:41.950Z,22.00
2018-08-22T07:01:10.247Z,22.10
2018-08-22T07:03:38.565Z,22.20
2018-08-22T07:06:06.948Z,22.30
2018-08-22T07:08:35.325Z,22.40
2018-08-22T07:11:03.601Z,22.50
2018-08-22T07:13:31.904Z,22.70
2018-08-22T07:16:00.272Z,22.80
2018-08-22T07:18:28.656Z,22.80
2018-08-22T07:20:56.978Z,22.90
2018-08-22T07:23:25.585Z,23.00
2018-08-22T07:25:53.911Z,23.10
2018-08-22T07:28:22.194Z,23.20
2018-08-22T07:30:50.554Z,23.20
2018-08-22T07:33:19.762Z,23.20
2018-08-22T07:35:48.232Z,23.20
2018-08-22T07:38:16.433Z,23.40
2018-08-22T07:40:44.775Z,23.50
2018-08-22T07:43:13.083Z,23.70
2018-08-22T07:45:41.412Z,23.80
2018-08-22T07:48:09.725Z,23.90
2018-08-22T07:50:38.034Z,24.00
2018-08-22T07:53:06.418Z,24.10
2018-08-22T07:55:38.179Z,24.10
2018-08-22T07:58:06.642Z,24.20
2018-08-22T08:00:34.963Z,24.30
2018-08-22T08:03:03.364Z,24.40
2018-08-22T08:05:31.755Z,24.50
2018-08-22T08:08:00.047Z,24.50
2018-08-22T08:10:32.249Z,24.50
2018-08-22T08:13:01.050Z,24.60
2018-08-22T08:15:29.377Z,24.70
2018-08-22T08:17:58.094Z,24.80
2018-08-22T08:20:26.424Z,24.90
2018-08-22T08:22:54.811Z,25.00
2018-08-22T08:25:23.197Z,25.20
2018-08-22T08:27:51.572Z,25.20
2018-08-22T08:30:19.916Z,25.40
2018-08-22T08:32:48.295Z,25.40
2018-08-22T08:35:16.659Z,25.50
2018-08-22T08:37:45.030Z,25.60
2018-08-22T08:40:13.324Z,25.60
2018-08-22T08:42:41.751Z,25.80
2018-08-22T08:45:10.913Z,25.90
2018-08-22T08:47:39.455Z,26.00
2018-08-22T08:50:07.774Z,26.10
2018-08-22T08:52:36.196Z,26.00
2018-08-22T08:55:04.575Z,26.10
2018-08-22T08:57:32.919Z,26.20
2018-08-22T09:00:01.582Z,26.20
2018-08-22T09:02:29.976Z,26.40
2018-08-22T09:04:58.334Z,26.40
2018-08-22T09:07:26.658Z,26.50
2018-08-22T09:09:56.050Z,26.50
2018-08-22T09:12:24.399Z,26.60
2018-08-22T09:14:52.711Z,26.60
2018-08-22T09:17:21.085Z,26.70
2018-08-22T09:19:49.441Z,26.80
2018-08-22T09:22:18.010Z,26.80
2018-08-22T09:24:46.382Z,26.80
2018-08-22T09:27:14.710Z,26.90
2018-08-22T09:29:43.055Z,27.00
2018-08-22T09:32:11.385Z,27.10
2018-08-22T09:34:39.721Z,27.20
2018-08-22T09:37:08.005Z,27.30
2018-08-22T09:39:36.383Z,27.50
2018-08-22T09:42:04.731Z,27.50
2018-08-22T09:44:33.067Z,27.50
2018-08-22T09:47:01.371Z,27.60
2018-08-22T09:49:29.709Z,27.70
2018-08-22T09:51:58.029Z,27.80
2018-08-22T09:54:26.438Z,27.90
2018-08-22T09:56:54.749Z,28.10
2018-08-22T09:59:23.283Z,28.10
2018-08-22T10:01:51.625Z,28.10
2018-08-22T10:04:19.971Z,28.20
2018-08-22T10:06:49.426Z,28.20
2018-08-22T10:09:22.330Z,28.30
2018-08-22T10:11:50.696Z,28.40
2018-08-22T10:14:19.034Z,28.40
2018-08-22T10:16:47.365Z,28.40
2018-08-22T10:19:15.666Z,28.50
2018-08-22T10:21:44.013Z,28.50
2018-08-22T10:24:12.413Z,28.60
2018-08-22T10:26:40.895Z,28.70
2018-08-22T10:29:09.186Z,28.70
2018-08-22T10:31:37.578Z,28.80
2018-08-22T10:34:05.968Z,28.80
2018-08-22T10:36:34.265Z,28.80
2018-08-22T10:39:02.716Z,28.90
2018-08-22T10:41:31.141Z,29.00
2018-08-22T10:43:59.467Z,29.00
2018-08-22T10:46:27.888Z,29.10
2018-08-22T10:48:56.258Z,29.10
2018-08-22T10:51:24.569Z,29.20
2018-08-22T10:53:52.951Z,29.30
2018-08-22T10:56:21.244Z,29.30
2018-08-22T10:58:49.573Z,29.20
2018-08-22T11:01:17.978Z,29.20
2018-08-22T11:03:46.344Z,29.30
2018-08-22T11:06:14.687Z,29.40
2018-08-22T11:08:43.056Z,29.50
2018-08-22T11:11:11.401Z,29.50
2018-08-22T11:13:39.820Z,29.50
2018-08-22T11:16:08.277Z,29.50
2018-08-22T11:18:36.831Z,29.70
2018-08-22T11:21:22.113Z,29.80
2018-08-22T11:24:07.394Z,29.90
2018-08-22T11:26:52.593Z,30.00
2018-08-22T11:29:37.654Z,30.10
2018-08-22T11:32:22.839Z,30.20
2018-08-22T11:34:50.552Z,30.40
2018-08-22T11:37:19.079Z,30.30
2018-08-22T11:39:49.646Z,30.30
2018-08-22T11:42:18.247Z,30.50
2018-08-22T11:44:46.589Z,30.30
2018-08-22T11:47:14.943Z,30.30
2018-08-22T11:49:44.153Z,30.40
2018-08-22T11:52:12.474Z,30.50
2018-08-22T11:54:40.804Z,30.50
2018-08-22T11:57:09.106Z,30.50
2018-08-22T11:59:37.435Z,30.70
2018-08-22T12:02:05.711Z,30.80
2018-08-22T12:04:40.895Z,30.80
2018-08-22T12:07:09.242Z,30.70
2018-08-22T12:09:37.610Z,30.70
2018-08-22T12:12:05.994Z,30.60
2018-08-22T12:14:34.293Z,30.50
2018-08-22T12:17:02.678Z,30.50
2018-08-22T12:19:31.076Z,30.50
2018-08-22T12:21:59.393Z,30.40
2018-08-22T12:24:27.690Z,30.40
2018-08-22T12:26:55.966Z,30.40
2018-08-22T12:29:24.310Z,30.30
2018-08-22T12:31:52.643Z,30.20
2018-08-22T12:34:20.992Z,30.10
2018-08-22T12:36:49.351Z,30.10
2018-08-22T12:39:17.650Z,30.20
2018-08-22T12:41:45.974Z,30.30
2018-08-22T12:44:14.314Z,30.30
2018-08-22T12:46:42.643Z,30.40
2018-08-22T12:49:11.089Z,30.40
2018-08-22T12:51:39.414Z,30.30
2018-08-22T12:54:07.747Z,30.50
2018-08-22T12:56:42.817Z,30.50
2018-08-22T12:59:11.142Z,30.60
2018-08-22T13:01:39.473Z,30.60
2018-08-22T13:04:07.929Z,30.60
2018-08-22T13:06:36.209Z,30.50
2018-08-22T13:09:06.662Z,30.60
2018-08-22T13:11:35.050Z,30.70
2018-08-22T13:14:03.359Z,30.60
2018-08-22T13:16:31.669Z,30.60
2018-08-22T13:18:59.962Z,30.60
2018-08-22T13:21:28.434Z,30.50
2018-08-22T13:23:56.777Z,30.50
2018-08-22T13:26:25.115Z,30.50
2018-08-22T13:28:53.478Z,30.60
2018-08-22T13:31:21.936Z,30.60
2018-08-22T13:33:50.261Z,30.70
2018-08-22T13:36:18.669Z,30.90
2018-08-22T13:38:46.969Z,31.00
2018-08-22T13:41:15.374Z,31.10
2018-08-22T13:43:43.690Z,31.20
2018-08-22T13:46:12.041Z,31.10
2018-08-22T13:48:40.372Z,31.10
2018-08-22T13:51:08.643Z,31.20
2018-08-22T13:53:36.962Z,31.20
2018-08-22T13:56:05.489Z,31.30
2018-08-22T13:58:33.801Z,31.30
2018-08-22T14:01:02.194Z,31.40
2018-08-22T14:03:30.548Z,31.50
2018-08-22T14:05:58.798Z,31.70
2018-08-22T14:08:27.130Z,31.90
2018-08-22T14:10:55.390Z,32.00
2018-08-22T14:13:23.637Z,32.10
2018-08-22T14:15:51.968Z,32.10
2018-08-22T14:18:20.266Z,32.20
2018-08-22T14:20:48.562Z,32.00
2018-08-22T14:23:16.884Z,31.80
2018-08-22T14:25:45.178Z,31.70
2018-08-22T14:28:13.517Z,31.70
2018-08-22T14:30:41.817Z,31.70
2018-08-22T14:33:10.122Z,31.80
2018-08-22T14:35:38.442Z,31.90
2018-08-22T14:38:06.808Z,31.90
2018-08-22T14:40:35.105Z,31.90
2018-08-22T14:43:03.425Z,31.80
2018-08-22T14:45:31.729Z,31.70
2018-08-22T14:48:00.079Z,31.50
2018-08-22T14:50:28.391Z,31.40
2018-08-22T14:52:56.759Z,31.40
2018-08-22T14:55:25.158Z,31.30
2018-08-22T14:57:53.521Z,31.30
2018-08-22T15:00:21.990Z,31.20
2018-08-22T15:02:50.563Z,31.20
2018-08-22T15:05:18.662Z,31.10
2018-08-22T15:07:46.957Z,31.00
2018-08-22T15:10:17.074Z,31.00
2018-08-22T15:12:45.843Z,30.90
2018-08-22T15:15:14.045Z,30.90
2018-08-22T15:17:42.641Z,30.90
2018-08-22T15:20:10.985Z,30.80
2018-08-22T15:22:39.449Z,30.70
2018-08-22T15:25:08.277Z,30.60
2018-08-22T15:27:36.593Z,30.60
2018-08-22T15:30:06.051Z,30.30
2018-08-22T15:32:34.355Z,30.00
2018-08-22T15:35:02.741Z,29.70
2018-08-22T15:37:31.070Z,29.20
2018-08-22T15:39:59.452Z,28.60
2018-08-22T15:42:27.882Z,28.50
2018-08-22T15:44:56.285Z,28.30
2018-08-22T15:47:24.629Z,28.10
2018-08-22T15:49:52.918Z,28.00
2018-08-22T15:52:21.244Z,27.90
2018-08-22T15:55:07.276Z,27.90
2018-08-22T15:57:53.909Z,27.60
2018-08-22T16:00:49.394Z,27.70
2018-08-22T16:03:17.922Z,27.20
2018-08-22T16:05:47.112Z,27.20
2018-08-22T16:08:19.339Z,27.30
2018-08-22T16:10:47.743Z,27.40
2018-08-22T16:13:21.602Z,27.30
2018-08-22T16:15:53.285Z,27.20
2018-08-22T16:18:21.868Z,27.20
2018-08-22T16:20:55.449Z,27.10
2018-08-22T16:23:29.522Z,26.60
2018-08-22T16:25:59.006Z,26.60
2018-08-22T16:28:34.418Z,26.50
2018-08-22T16:31:02.822Z,26.50
2018-08-22T16:33:31.129Z,26.50
2018-08-22T16:35:59.577Z,26.40
2018-08-22T16:38:27.923Z,26.30
2018-08-22T16:40:56.261Z,26.20
2018-08-22T16:43:39.705Z,26.20
2018-08-22T16:46:12.275Z,26.10
2018-08-22T16:48:41.724Z,26.20
2018-08-22T16:51:10.151Z,26.30
2018-08-22T16:53:38.468Z,26.30
2018-08-22T16:56:06.897Z,26.30
2018-08-22T16:58:35.267Z,26.20
2018-08-22T17:01:03.683Z,26.20
2018-08-22T17:03:32.136Z,26.20
2018-08-22T17:06:06.030Z,26.30
2018-08-22T17:08:34.402Z,26.40
2018-08-22T17:11:04.829Z,26.50
2018-08-22T17:13:44.500Z,26.60
2018-08-22T17:16:12.826Z,26.80
2018-08-22T17:18:41.219Z,26.80
2018-08-22T17:21:09.773Z,26.90
2018-08-22T17:23:38.636Z,27.00
2018-08-22T17:26:12.998Z,27.10
2018-08-22T17:28:44.235Z,27.10
2018-08-22T17:31:13.274Z,27.20
2018-08-22T17:33:44.666Z,27.30
2018-08-22T17:36:13.038Z,27.30
2018-08-22T17:38:44.858Z,27.40
2018-08-22T17:41:13.773Z,27.50
2018-08-22T17:43:59.069Z,27.40
2018-08-22T17:46:58.321Z,27.40
2018-08-22T17:49:26.724Z,27.40
2018-08-22T17:52:04.422Z,27.50
2018-08-22T17:54:33.026Z,27.50
2018-08-22T17:57:14.201Z,27.40
2018-08-22T17:59:43.565Z,27.40
2018-08-22T18:02:12.142Z,27.30
2018-08-22T18:04:53.188Z,27.20
2018-08-22T18:07:22.561Z,27.20
2018-08-22T18:09:51.345Z,27.20
2018-08-22T18:12:23.198Z,27.00
2018-08-22T18:14:51.735Z,27.00
2018-08-22T18:17:20.567Z,27.00
2018-08-22T18:19:49.154Z,26.80
2018-08-22T18:22:17.597Z,26.70
2018-08-22T18:24:51.562Z,26.70
2018-08-22T18:27:19.939Z,26.70
2018-08-22T18:29:48.486Z,26.70
2018-08-22T18:32:16.907Z,26.80
2018-08-22T18:35:04.030Z,26.70
2018-08-22T18:37:32.624Z,26.70
2018-08-22T18:40:15.613Z,26.60
2018-08-22T18:42:47.328Z,26.40
2018-08-22T18:45:15.963Z,26.30
2018-08-22T18:47:44.398Z,26.30
2018-08-22T18:50:12.846Z,26.20
2018-08-22T18:52:41.276Z,26.20
2018-08-22T18:55:09.660Z,26.10
2018-08-22T18:57:38.113Z,26.10
2018-08-22T19:00:08.328Z,26.00
2018-08-22T19:02:36.783Z,26.00
2018-08-22T19:05:24.938Z,26.00
2018-08-22T19:08:03.918Z,25.90
2018-08-22T19:10:35.785Z,25.80
2018-08-22T19:13:08.780Z,25.80
2018-08-22T19:15:37.579Z,25.80
2018-08-22T19:18:08.362Z,25.80
2018-08-22T19:20:37.030Z,25.70
2018-08-22T19:23:06.318Z,25.70
2018-08-22T19:25:34.790Z,25.70
2018-08-22T19:28:03.284Z,25.70
2018-08-22T19:30:34.726Z,25.80
2018-08-22T19:33:03.296Z,25.70
2018-08-22T19:35:31.738Z,25.60
2018-08-22T19:38:03.846Z,25.50
2018-08-22T19:40:32.327Z,25.50
2018-08-22T19:43:01.315Z,25.50
2018-08-22T19:45:29.811Z,25.40
2018-08-22T19:47:58.258Z,25.40
2018-08-22T19:50:26.706Z,25.40
2018-08-22T19:52:55.124Z,25.30
2018-08-22T19:55:23.660Z,25.20
2018-08-22T19:57:52.100Z,24.90
2018-08-22T20:00:20.556Z,24.90
2018-08-22T20:02:49.020Z,25.00
2018-08-22T20:05:17.508Z,25.10
2018-08-22T20:07:45.988Z,25.10
2018-08-22T20:10:14.459Z,25.00
2018-08-22T20:12:49.622Z,24.90
2018-08-22T20:15:24.738Z,24.90
2018-08-22T20:17:54.064Z,24.80
2018-08-22T20:20:22.638Z,24.70
2018-08-22T20:22:55.100Z,24.60
2018-08-22T20:25:23.425Z,24.50
2018-08-22T20:27:51.858Z,24.50
2018-08-22T20:30:21.123Z,24.60
2018-08-22T20:32:58.149Z,24.50
2018-08-22T20:35:29.012Z,24.50
2018-08-22T20:37:59.004Z,24.50
2018-08-22T20:40:27.614Z,24.40
2018-08-22T20:42:56.093Z,24.40
2018-08-22T20:45:31.840Z,24.30
2018-08-22T20:48:06.059Z,24.20
2018-08-22T20:50:35.347Z,24.20
2018-08-22T20:53:04.885Z,24.10
2018-08-22T20:55:33.504Z,24.10
2018-08-22T20:58:02.449Z,24.10
2018-08-22T21:00:32.790Z,24.10
2018-08-22T21:03:01.257Z,24.00
2018-08-22T21:05:29.585Z,23.90
2018-08-22T21:07:58.067Z,23.80
2018-08-22T21:10:26.494Z,23.80
2018-08-22T21:12:54.981Z,23.80
2018-08-22T21:15:23.397Z,23.80
2018-08-22T21:17:51.894Z,23.80
2018-08-22T21:20:22.999Z,23.70
2018-08-22T21:22:52.564Z,23.70
2018-08-22T21:25:20.930Z,23.70
2018-08-22T21:27:49.910Z,23.70
2018-08-22T21:30:18.400Z,23.70
2018-08-22T21:32:47.660Z,23.70
2018-08-22T21:35:22.819Z,23.60
2018-08-22T21:37:51.346Z,23.60
2018-08-22T21:40:20.051Z,23.50
2018-08-22T21:42:48.479Z,23.50
2018-08-22T21:45:16.892Z,23.50
2018-08-22T21:47:45.298Z,23.40
2018-08-22T21:50:13.742Z,23.40
2018-08-22T21:53:05.829Z,23.30
2018-08-22T21:55:38.462Z,23.30
2018-08-22T21:58:07.808Z,23.40
2018-08-22T22:00:36.488Z,23.50
2018-08-22T22:03:12.373Z,23.40
2018-08-22T22:05:55.762Z,23.40
2018-08-22T22:08:24.314Z,23.40
2018-08-22T22:11:02.770Z,23.40
2018-08-22T22:13:31.215Z,23.30
2018-08-22T22:16:01.499Z,23.30
2018-08-22T22:18:31.823Z,23.30
2018-08-22T22:21:12.604Z,23.30
2018-08-22T22:23:46.240Z,23.10
2018-08-22T22:26:15.792Z,23.10
2018-08-22T22:28:44.168Z,23.10
2018-08-22T22:31:14.798Z,23.00
2018-08-22T22:33:52.853Z,22.90
2018-08-22T22:36:21.584Z,22.90
2018-08-22T22:38:49.928Z,23.00
2018-08-22T22:41:18.346Z,22.90
2018-08-22T22:43:46.672Z,23.00
2018-08-22T22:46:15.115Z,23.00
2018-08-22T22:48:44.362Z,23.00
2018-08-22T22:51:12.833Z,23.00
2018-08-22T22:53:41.213Z,23.00
2018-08-22T22:56:09.613Z,23.00
2018-08-22T22:58:37.974Z,22.90
2018-08-22T23:01:06.883Z,22.90
2018-08-22T23:03:35.234Z,22.90
2018-08-22T23:06:03.630Z,22.90
2018-08-22T23:08:31.945Z,22.80
2018-08-22T23:11:00.310Z,22.70
2018-08-22T23:13:29.078Z,22.70
2018-08-22T23:15:57.447Z,22.70
2018-08-22T23:18:25.807Z,22.70
2018-08-22T23:20:54.223Z,22.70
2018-08-22T23:23:37.310Z,22.60
2018-08-22T23:26:14.345Z,22.60
2018-08-22T23:28:43.790Z,22.60
2018-08-22T23:31:15.047Z,22.40
2018-08-22T23:33:43.429Z,22.50
2018-08-22T23:36:11.820Z,22.50
2018-08-22T23:38:40.140Z,22.50
2018-08-22T23:41:08.618Z,22.50
2018-08-22T23:43:42.412Z,22.50
2018-08-22T23:46:11.678Z,22.50
2018-08-22T23:48:40.365Z,22.50
2018-08-22T23:51:12.130Z,22.50
2018-08-22T23:53:47.449Z,22.40
2018-08-22T23:56:25.554Z,22.50
2018-08-22T23:58:54.558Z,22.50
